createdAt,value
2023-05-08T00:02:29.995Z,101713.91
2023-05-08T00:07:32.839Z,101715.42
2023-05-08T00:12:36.345Z,101720.37
2023-05-08T00:17:39.050Z,101720.48
2023-05-08T00:22:41.815Z,101723.13
2023-05-08T00:27:44.493Z,101724.00
2023-05-08T00:32:47.376Z,101727.70
2023-05-08T00:37:50.166Z,101733.10
2023-05-08T00:42:53.247Z,101740.52
2023-05-08T00:47:55.977Z,101737.63
2023-05-08T00:53:01.213Z,101749.72
2023-05-08T00:58:05.031Z,101746.59
2023-05-08T01:03:09.373Z,101750.90
2023-05-08T01:08:12.286Z,101762.08
2023-05-08T01:13:21.200Z,101763.46
2023-05-08T01:18:37.083Z,101766.29
2023-05-08T01:23:42.502Z,101762.24
2023-05-08T01:28:57.204Z,101767.13
2023-05-08T01:34:06.301Z,101768.58
2023-05-08T01:39:26.305Z,101775.08
2023-05-08T01:44:35.373Z,101781.42
2023-05-08T01:49:42.266Z,101778.75
2023-05-08T01:54:55.816Z,101777.69
2023-05-08T02:00:01.017Z,101780.40
2023-05-08T02:05:08.290Z,101778.77
2023-05-08T02:10:13.130Z,101787.41
2023-05-08T02:15:21.253Z,101790.80
2023-05-08T02:20:24.029Z,101793.67
2023-05-08T02:25:28.247Z,101797.38
2023-05-08T02:30:31.514Z,101792.06
2023-05-08T02:35:35.466Z,101795.13
2023-05-08T02:40:44.285Z,101801.84
2023-05-08T02:45:52.466Z,101810.85
2023-05-08T02:51:00.669Z,101812.30
2023-05-08T02:56:27.188Z,101809.93
2023-05-08T03:01:35.624Z,101809.23
2023-05-08T03:06:47.825Z,101811.67
2023-05-08T03:12:02.438Z,101813.64
2023-05-08T03:17:09.202Z,101815.62
2023-05-08T03:22:14.194Z,101817.40
2023-05-08T03:27:20.413Z,101818.45
2023-05-08T03:32:26.365Z,101819.78
2023-05-08T03:37:30.587Z,101826.65
2023-05-08T03:42:33.721Z,101825.17
2023-05-08T03:47:37.169Z,101824.88
2023-05-08T03:52:39.897Z,101821.94
2023-05-08T03:58:16.940Z,101824.98
2023-05-08T04:08:45.326Z,101835.06
2023-05-08T04:13:51.905Z,101829.41
2023-05-08T04:19:01.517Z,101836.30
2023-05-08T04:24:07.323Z,101834.55
2023-05-08T04:29:10.851Z,101837.23
2023-05-08T04:34:14.276Z,101844.71
2023-05-08T04:39:16.993Z,101847.86
2023-05-08T04:44:19.726Z,101846.91
2023-05-08T04:49:22.406Z,101851.09
2023-05-08T04:54:25.068Z,101854.94
2023-05-08T04:59:29.587Z,101861.80
2023-05-08T05:04:32.417Z,101862.42
2023-05-08T05:09:37.148Z,101863.92
2023-05-08T05:14:39.859Z,101865.38
2023-05-08T05:19:42.540Z,101868.14
2023-05-08T05:24:45.285Z,101871.73
2023-05-08T05:29:47.962Z,101871.33
2023-05-08T05:34:51.244Z,101879.06
2023-05-08T05:39:54.144Z,101881.36
2023-05-08T05:44:57.080Z,101885.37
2023-05-08T05:49:59.808Z,101881.91
2023-05-08T05:55:02.640Z,101884.59
2023-05-08T06:00:07.254Z,101890.83
2023-05-08T06:05:10.583Z,101888.10
2023-05-08T06:10:13.681Z,101891.38
2023-05-08T06:15:16.468Z,101890.64
2023-05-08T06:20:19.460Z,101899.27
2023-05-08T06:25:25.675Z,101898.92
2023-05-08T06:30:28.676Z,101902.39
2023-05-08T06:35:33.109Z,101896.23
2023-05-08T06:40:36.148Z,101899.05
2023-05-08T06:45:40.698Z,101895.90
2023-05-08T06:50:43.570Z,101893.98
2023-05-08T06:55:46.381Z,101888.45
2023-05-08T07:00:52.393Z,101894.44
2023-05-08T07:05:58.255Z,101893.38
2023-05-08T07:11:05.496Z,101890.90
2023-05-08T07:16:12.996Z,101897.67
2023-05-08T07:21:21.404Z,101897.68
2023-05-08T07:26:28.261Z,101897.59
2023-05-08T07:31:35.368Z,101898.98
2023-05-08T07:36:38.765Z,101897.52
2023-05-08T07:41:46.771Z,101895.06
2023-05-08T07:46:51.752Z,101889.52
2023-05-08T07:51:54.594Z,101888.80
2023-05-08T07:56:57.364Z,101886.80
2023-05-08T08:02:00.288Z,101887.61
2023-05-08T08:07:03.216Z,101889.20
2023-05-08T08:12:07.512Z,101886.61
2023-05-08T08:17:13.227Z,101884.58
2023-05-08T08:22:16.508Z,101875.74
2023-05-08T08:27:22.552Z,101872.48
2023-05-08T08:32:39.203Z,101874.88
2023-05-08T08:37:52.464Z,101870.06
2023-05-08T08:42:55.763Z,101869.71
2023-05-08T08:48:02.595Z,101871.70
2023-05-08T08:53:32.422Z,101868.83
2023-05-08T08:58:46.821Z,101875.20
2023-05-08T09:03:50.135Z,101871.64
2023-05-08T09:08:57.836Z,101865.54
2023-05-08T09:14:00.608Z,101867.73
2023-05-08T09:19:04.592Z,101862.90
2023-05-08T09:24:07.702Z,101859.51
2023-05-08T09:29:15.380Z,101855.02
2023-05-08T09:34:28.283Z,101854.80
2023-05-08T09:39:41.594Z,101847.91
2023-05-08T09:44:52.879Z,101842.91
2023-05-08T09:50:00.932Z,101832.87
2023-05-08T09:55:11.523Z,101834.60
2023-05-08T10:00:14.923Z,101834.79
2023-05-08T10:05:38.052Z,101830.21
2023-05-08T10:10:40.923Z,101823.58
2023-05-08T10:15:45.291Z,101817.48
2023-05-08T10:20:52.208Z,101815.05
2023-05-08T10:26:02.241Z,101808.61
2023-05-08T10:31:08.207Z,101802.39
2023-05-08T10:36:11.180Z,101803.67
2023-05-08T10:41:15.842Z,101799.07
2023-05-08T10:46:32.282Z,101794.79
2023-05-08T10:52:00.942Z,101793.98
2023-05-08T10:57:10.768Z,101792.92
2023-05-08T11:02:14.970Z,101789.06
2023-05-08T11:07:18.041Z,101785.96
2023-05-08T11:12:25.671Z,101785.52
2023-05-08T11:17:30.760Z,101778.94
2023-05-08T11:22:37.143Z,101765.96
2023-05-08T11:27:49.310Z,101762.41
2023-05-08T11:33:15.736Z,101763.27
2023-05-08T11:38:38.675Z,101756.80
2023-05-08T11:44:23.849Z,101754.41
2023-05-08T11:49:34.298Z,101752.76
2023-05-08T11:54:46.855Z,101743.77
2023-05-08T12:00:04.782Z,101738.74
2023-05-08T12:05:09.490Z,101739.27
2023-05-08T12:10:14.436Z,101740.69
2023-05-08T12:15:17.521Z,101730.63
2023-05-08T12:20:21.825Z,101731.25
2023-05-08T12:25:25.756Z,101726.97
2023-05-08T12:30:29.585Z,101720.59
2023-05-08T12:35:33.778Z,101721.24
2023-05-08T12:40:42.833Z,101720.27
2023-05-08T12:45:46.080Z,101715.98
2023-05-08T12:50:48.846Z,101716.05
2023-05-08T12:55:59.022Z,101712.11
2023-05-08T13:01:07.762Z,101713.24
2023-05-08T13:06:21.568Z,101709.31
2023-05-08T13:11:34.772Z,101702.72
2023-05-08T13:16:48.040Z,101703.39
2023-05-08T13:21:55.353Z,101686.60
2023-05-08T13:26:58.047Z,101684.10
2023-05-08T13:32:00.808Z,101677.80
2023-05-08T13:37:03.953Z,101675.42
2023-05-08T13:42:06.628Z,101667.52
2023-05-08T13:47:10.425Z,101663.05
2023-05-08T13:52:13.185Z,101658.11
2023-05-08T13:57:16.106Z,101659.84
2023-05-08T14:02:19.276Z,101656.19
2023-05-08T14:07:22.246Z,101648.73
2023-05-08T14:12:24.946Z,101650.42
2023-05-08T14:17:27.754Z,101641.38
2023-05-08T14:22:30.574Z,101638.02
2023-05-08T14:27:33.384Z,101643.02
2023-05-08T14:32:36.172Z,101635.12
2023-05-08T14:37:38.960Z,101634.89
2023-05-08T14:42:41.651Z,101640.48
2023-05-08T14:47:44.438Z,101638.90
2023-05-08T14:52:47.372Z,101632.05
2023-05-08T14:57:50.468Z,101630.30
2023-05-08T15:02:53.217Z,101633.24
2023-05-08T15:07:56.481Z,101625.16
2023-05-08T15:12:59.322Z,101621.54
2023-05-08T15:18:02.491Z,101619.73
2023-05-08T15:23:06.628Z,101617.21
2023-05-08T15:28:09.967Z,101610.79
2023-05-08T15:33:13.363Z,101604.89
2023-05-08T15:38:17.687Z,101608.10
2023-05-08T15:43:20.820Z,101609.02
2023-05-08T15:48:23.576Z,101608.66
2023-05-08T15:53:26.364Z,101604.15
2023-05-08T15:58:29.202Z,101604.77
2023-05-08T16:03:33.299Z,101599.46
2023-05-08T16:08:37.349Z,101598.43
2023-05-08T16:13:40.450Z,101593.59
2023-05-08T16:18:43.200Z,101590.39
2023-05-08T16:23:48.158Z,101586.55
2023-05-08T16:28:50.910Z,101585.26
2023-05-08T16:33:53.753Z,101584.64
2023-05-08T16:38:56.459Z,101589.92
2023-05-08T16:43:59.180Z,101589.94
2023-05-08T16:49:01.864Z,101593.65
2023-05-08T16:54:04.653Z,101592.89
2023-05-08T16:59:07.356Z,101600.00
2023-05-08T17:04:10.157Z,101600.17
2023-05-08T17:09:13.123Z,101597.15
2023-05-08T17:14:19.622Z,101601.76
2023-05-08T17:19:22.856Z,101604.86
2023-05-08T17:24:25.859Z,101603.89
2023-05-08T17:29:28.753Z,101602.11
2023-05-08T17:34:32.309Z,101601.11
2023-05-08T17:39:35.390Z,101608.20
2023-05-08T17:44:38.185Z,101603.52
2023-05-08T17:49:41.024Z,101605.64
2023-05-08T17:54:43.792Z,101607.16
2023-05-08T17:59:46.449Z,101610.20
2023-05-08T18:04:57.013Z,101612.50
2023-05-08T18:10:07.698Z,101619.18
2023-05-08T18:15:11.519Z,101623.09
2023-05-08T18:20:14.578Z,101631.98
2023-05-08T18:25:18.991Z,101639.48
2023-05-08T18:30:21.762Z,101647.64
2023-05-08T18:35:24.449Z,101655.41
2023-05-08T18:40:27.145Z,101659.61
2023-05-08T18:45:31.318Z,101665.95
2023-05-08T18:50:34.132Z,101666.70
2023-05-08T18:55:37.309Z,101676.84
2023-05-08T19:00:40.179Z,101676.98
2023-05-08T19:05:43.947Z,101680.77
2023-05-08T19:10:46.622Z,101679.02
2023-05-08T19:15:49.458Z,101679.20
2023-05-08T19:20:52.294Z,101672.38
2023-05-08T19:31:14.187Z,101674.45
2023-05-08T19:36:19.975Z,101676.52
2023-05-08T19:41:24.257Z,101678.19
2023-05-08T19:46:27.028Z,101677.27
2023-05-08T19:51:29.876Z,101681.52
2023-05-08T19:56:32.544Z,101685.34
2023-05-08T20:01:35.323Z,101684.28
2023-05-08T20:06:39.301Z,101688.95
2023-05-08T20:11:41.983Z,101686.33
2023-05-08T20:16:44.757Z,101684.12
2023-05-08T20:21:48.476Z,101684.66
2023-05-08T20:26:56.253Z,101686.04
2023-05-08T20:31:58.990Z,101693.91
2023-05-08T20:37:03.850Z,101694.75
2023-05-08T20:42:06.561Z,101689.41
2023-05-08T20:47:09.269Z,101693.34
2023-05-08T20:52:11.961Z,101691.89
2023-05-08T20:57:20.055Z,101693.08
2023-05-08T21:02:23.365Z,101694.42
2023-05-08T21:07:26.104Z,101694.86
2023-05-08T21:12:28.856Z,101694.48
2023-05-08T21:17:31.716Z,101697.50
2023-05-08T21:22:34.523Z,101702.37
2023-05-08T21:27:37.200Z,101702.36
2023-05-08T21:32:40.146Z,101702.16
2023-05-08T21:37:42.887Z,101704.52
2023-05-08T21:42:46.034Z,101704.58
2023-05-08T21:47:48.835Z,101703.95
2023-05-08T21:52:53.267Z,101704.36
2023-05-08T21:57:55.945Z,101705.23
2023-05-08T22:02:58.693Z,101707.76
2023-05-08T22:08:01.418Z,101708.00
2023-05-08T22:13:06.754Z,101713.23
2023-05-08T22:18:09.527Z,101706.56
2023-05-08T22:23:12.316Z,101710.25
2023-05-08T22:28:15.072Z,101704.41
2023-05-08T22:33:17.787Z,101702.29
2023-05-08T22:38:20.488Z,101708.80
2023-05-08T22:43:24.304Z,101705.75
2023-05-08T22:48:27.783Z,101707.44
2023-05-08T22:53:30.497Z,101717.46
2023-05-08T22:58:33.204Z,101726.58
2023-05-08T23:03:35.860Z,101721.39
2023-05-08T23:08:38.540Z,101716.08
2023-05-08T23:13:41.278Z,101713.88
2023-05-08T23:18:44.607Z,101708.02
2023-05-08T23:23:48.201Z,101708.80
2023-05-08T23:28:51.033Z,101708.55
2023-05-08T23:33:53.965Z,101705.54
2023-05-08T23:38:56.624Z,101707.56
2023-05-08T23:43:59.324Z,101709.80
2023-05-08T23:49:02.407Z,101712.35
2023-05-08T23:54:05.814Z,101705.95
2023-05-08T23:59:08.532Z,101705.20
